createdAt,value
2023-04-03T00:01:11.395Z,4.10
2023-04-03T00:03:38.455Z,4.10
2023-04-03T00:06:07.877Z,4.10
2023-04-03T00:08:34.942Z,4.10
2023-04-03T00:11:02.246Z,4.10
2023-04-03T00:13:29.439Z,4.10
2023-04-03T00:15:56.741Z,4.10
2023-04-03T00:18:23.860Z,4.00
2023-04-03T00:20:52.674Z,4.00
2023-04-03T00:23:19.752Z,4.00
2023-04-03T00:25:46.930Z,4.00
2023-04-03T00:28:13.934Z,3.90
2023-04-03T00:30:41.232Z,3.90
2023-04-03T00:33:08.338Z,3.90
2023-04-03T00:35:36.293Z,3.90
2023-04-03T00:38:03.321Z,3.90
2023-04-03T00:40:38.101Z,3.90
2023-04-03T00:43:13.895Z,3.90
2023-04-03T00:45:43.949Z,3.90
2023-04-03T00:48:21.132Z,3.80
2023-04-03T00:50:49.271Z,3.80
2023-04-03T00:53:22.872Z,3.70
2023-04-03T00:55:51.956Z,3.70
2023-04-03T00:58:21.972Z,3.70
2023-04-03T01:00:57.267Z,3.70
2023-04-03T01:03:24.590Z,3.70
2023-04-03T01:05:52.276Z,3.70
2023-04-03T01:08:19.493Z,3.60
2023-04-03T01:10:46.527Z,3.60
2023-04-03T01:13:27.497Z,3.60
2023-04-03T01:15:55.015Z,3.60
2023-04-03T01:18:25.350Z,3.50
2023-04-03T01:21:01.470Z,3.50
2023-04-03T01:23:51.467Z,3.50
2023-04-03T01:26:18.805Z,3.40
2023-04-03T01:28:45.962Z,3.40
2023-04-03T01:31:42.228Z,3.30
2023-04-03T01:34:09.232Z,3.40
2023-04-03T01:36:36.506Z,3.30
2023-04-03T01:39:03.965Z,3.30
2023-04-03T01:41:31.162Z,3.30
2023-04-03T01:43:58.056Z,3.30
2023-04-03T01:46:25.183Z,3.30
2023-04-03T01:48:52.156Z,3.30
2023-04-03T01:51:19.035Z,3.20
2023-04-03T01:53:46.113Z,3.20
2023-04-03T01:56:13.156Z,3.20
2023-04-03T01:58:40.441Z,3.20
2023-04-03T02:01:07.763Z,3.10
2023-04-03T02:03:35.506Z,3.10
2023-04-03T02:06:02.534Z,3.00
2023-04-03T02:08:29.553Z,3.00
2023-04-03T02:10:56.504Z,3.00
2023-04-03T02:13:23.478Z,3.00
2023-04-03T02:15:50.377Z,3.00
2023-04-03T02:18:17.741Z,3.00
2023-04-03T02:20:44.859Z,2.90
2023-04-03T02:23:11.852Z,2.90
2023-04-03T02:25:39.161Z,2.90
2023-04-03T02:28:07.026Z,2.80
2023-04-03T02:30:34.603Z,2.80
2023-04-03T02:33:01.825Z,2.80
2023-04-03T02:35:28.784Z,2.80
2023-04-03T02:37:56.248Z,2.70
2023-04-03T02:40:23.228Z,2.70
2023-04-03T02:42:50.633Z,2.60
2023-04-03T02:45:17.753Z,2.60
2023-04-03T02:47:44.816Z,2.60
2023-04-03T02:50:13.056Z,2.50
2023-04-03T02:52:40.120Z,2.50
2023-04-03T02:55:07.768Z,2.50
2023-04-03T02:57:34.875Z,2.40
2023-04-03T03:00:01.986Z,2.40
2023-04-03T03:02:28.993Z,2.30
2023-04-03T03:04:56.081Z,2.30
2023-04-03T03:07:23.318Z,2.30
2023-04-03T03:09:50.549Z,2.30
2023-04-03T03:12:22.500Z,2.30
2023-04-03T03:14:50.722Z,2.20
2023-04-03T03:17:18.271Z,2.20
2023-04-03T03:19:46.705Z,2.20
2023-04-03T03:22:13.576Z,2.10
2023-04-03T03:24:40.747Z,2.10
2023-04-03T03:27:07.690Z,2.10
2023-04-03T03:29:34.643Z,2.00
2023-04-03T03:32:01.601Z,2.00
2023-04-03T03:34:28.556Z,2.00
2023-04-03T03:36:56.145Z,2.00
2023-04-03T03:39:23.158Z,2.00
2023-04-03T03:41:50.827Z,1.90
2023-04-03T03:44:17.767Z,1.90
2023-04-03T03:46:44.857Z,1.90
2023-04-03T03:49:12.535Z,1.90
2023-04-03T03:51:40.336Z,1.80
2023-04-03T03:54:07.982Z,1.80
2023-04-03T03:56:35.346Z,1.80
2023-04-03T03:59:02.241Z,1.80
2023-04-03T04:01:29.288Z,1.80
2023-04-03T04:03:56.577Z,1.80
2023-04-03T04:06:24.123Z,1.70
2023-04-03T04:08:51.408Z,1.70
2023-04-03T04:11:18.561Z,1.70
2023-04-03T04:13:45.621Z,1.70
2023-04-03T04:16:12.613Z,1.60
2023-04-03T04:18:39.677Z,1.60
2023-04-03T04:21:06.614Z,1.60
2023-04-03T04:23:33.562Z,1.60
2023-04-03T04:26:00.570Z,1.60
2023-04-03T04:28:27.525Z,1.60
2023-04-03T04:30:54.482Z,1.60
2023-04-03T04:33:21.684Z,1.60
2023-04-03T04:35:49.652Z,1.60
2023-04-03T04:38:16.707Z,1.50
2023-04-03T04:40:43.699Z,1.50
2023-04-03T04:43:14.634Z,1.50
2023-04-03T04:45:42.815Z,1.50
2023-04-03T04:48:09.915Z,1.50
2023-04-03T04:50:36.972Z,1.40
2023-04-03T04:53:05.191Z,1.40
2023-04-03T04:55:32.148Z,1.40
2023-04-03T04:57:59.133Z,1.40
2023-04-03T05:00:26.308Z,1.40
2023-04-03T05:02:53.378Z,1.40
2023-04-03T05:05:20.382Z,1.40
2023-04-03T05:07:47.624Z,1.30
2023-04-03T05:10:14.553Z,1.40
2023-04-03T05:12:41.767Z,1.30
2023-04-03T05:15:09.657Z,1.30
2023-04-03T05:17:36.677Z,1.30
2023-04-03T05:20:05.579Z,1.30
2023-04-03T05:22:32.729Z,1.30
2023-04-03T05:24:59.727Z,1.30
2023-04-03T05:27:29.082Z,1.30
2023-04-03T05:29:56.571Z,1.30
2023-04-03T05:32:24.954Z,1.30
2023-04-03T05:34:52.721Z,1.40
2023-04-03T05:37:19.781Z,1.30
2023-04-03T05:39:47.105Z,1.40
2023-04-03T05:42:14.915Z,1.40
2023-04-03T05:44:42.020Z,1.50
2023-04-03T05:47:08.920Z,1.60
2023-04-03T05:49:36.202Z,1.70
2023-04-03T05:52:03.176Z,1.70
2023-04-03T05:54:31.318Z,1.80
2023-04-03T05:56:58.828Z,1.90
2023-04-03T05:59:25.985Z,2.00
2023-04-03T06:01:53.233Z,2.00
2023-04-03T06:04:20.998Z,2.10
2023-04-03T06:06:54.699Z,2.20
2023-04-03T06:09:25.506Z,2.30
2023-04-03T06:11:53.188Z,2.40
2023-04-03T06:14:20.453Z,2.50
2023-04-03T06:16:47.569Z,2.60
2023-04-03T06:19:14.758Z,2.70
2023-04-03T06:21:41.676Z,2.80
2023-04-03T06:24:09.089Z,2.90
2023-04-03T06:26:36.135Z,3.00
2023-04-03T06:29:03.511Z,3.20
2023-04-03T06:31:30.919Z,3.30
2023-04-03T06:33:58.254Z,3.50
2023-04-03T06:36:25.509Z,3.80
2023-04-03T06:38:52.643Z,4.10
2023-04-03T06:41:19.653Z,4.30
2023-04-03T06:43:46.570Z,4.50
2023-04-03T06:46:22.964Z,4.70
2023-04-03T06:48:50.620Z,4.90
2023-04-03T06:51:30.016Z,5.00
2023-04-03T06:53:59.252Z,4.90
2023-04-03T06:56:27.870Z,5.00
2023-04-03T06:58:58.433Z,5.20
2023-04-03T07:01:28.973Z,5.40
2023-04-03T07:03:56.490Z,5.60
2023-04-03T07:06:23.591Z,5.80
2023-04-03T07:08:50.613Z,5.90
2023-04-03T07:11:18.169Z,6.10
2023-04-03T07:13:45.141Z,6.30
2023-04-03T07:16:12.661Z,6.50
2023-04-03T07:18:39.786Z,6.60
2023-04-03T07:21:07.295Z,6.80
2023-04-03T07:23:34.961Z,6.80
2023-04-03T07:26:02.337Z,6.80
2023-04-03T07:28:29.586Z,6.90
2023-04-03T07:31:06.715Z,7.10
2023-04-03T07:33:33.951Z,7.30
2023-04-03T07:36:01.497Z,7.60
2023-04-03T07:38:29.087Z,7.90
2023-04-03T07:40:56.356Z,8.10
2023-04-03T07:43:25.709Z,8.20
2023-04-03T07:45:53.438Z,8.30
2023-04-03T07:48:23.002Z,8.50
2023-04-03T07:50:50.107Z,8.60
2023-04-03T07:53:17.236Z,8.60
2023-04-03T07:55:44.299Z,8.70
2023-04-03T07:58:13.014Z,8.80
2023-04-03T08:00:40.526Z,8.90
2023-04-03T08:03:10.521Z,9.10
2023-04-03T08:05:43.127Z,9.20
2023-04-03T08:08:12.807Z,9.40
2023-04-03T08:10:40.402Z,9.60
2023-04-03T08:13:08.743Z,9.80
2023-04-03T08:15:36.981Z,10.00
2023-04-03T08:18:04.546Z,10.20
2023-04-03T08:20:31.807Z,10.40
2023-04-03T08:22:58.994Z,10.40
2023-04-03T08:25:26.234Z,10.60
2023-04-03T08:27:53.338Z,10.70
2023-04-03T08:30:20.726Z,10.80
2023-04-03T08:32:47.844Z,11.00
2023-04-03T08:35:15.098Z,11.10
2023-04-03T08:37:42.128Z,11.20
2023-04-03T08:40:15.161Z,11.30
2023-04-03T08:43:07.466Z,11.30
2023-04-03T08:45:51.987Z,11.50
2023-04-03T08:48:28.036Z,11.60
2023-04-03T08:50:59.018Z,11.70
2023-04-03T08:53:32.182Z,11.90
2023-04-03T08:56:01.362Z,12.00
2023-04-03T08:58:38.369Z,11.90
2023-04-03T09:01:11.684Z,12.00
2023-04-03T09:03:41.835Z,12.10
2023-04-03T09:06:32.470Z,12.20
2023-04-03T09:09:21.206Z,12.40
2023-04-03T09:12:22.313Z,12.60
2023-04-03T09:14:52.602Z,12.70
2023-04-03T09:17:46.237Z,12.80
2023-04-03T09:20:31.530Z,12.90
2023-04-03T09:22:59.029Z,13.20
2023-04-03T09:25:39.649Z,13.20
2023-04-03T09:28:10.873Z,13.20
2023-04-03T09:30:39.476Z,13.20
2023-04-03T09:33:08.207Z,13.30
2023-04-03T09:35:48.187Z,13.20
2023-04-03T09:38:23.192Z,13.50
2023-04-03T09:41:03.781Z,13.80
2023-04-03T09:43:39.639Z,14.10
2023-04-03T09:46:33.019Z,14.50
2023-04-03T09:49:09.416Z,14.60
2023-04-03T09:51:41.916Z,14.90
2023-04-03T09:54:31.971Z,15.10
2023-04-03T09:57:09.130Z,15.10
2023-04-03T09:59:36.238Z,15.30
2023-04-03T10:02:12.402Z,15.30
2023-04-03T10:04:43.092Z,15.50
2023-04-03T10:07:27.922Z,15.60
2023-04-03T10:10:23.957Z,16.00
2023-04-03T10:13:12.258Z,16.20
2023-04-03T10:15:47.444Z,16.50
2023-04-03T10:18:27.096Z,16.50
2023-04-03T10:20:58.238Z,16.40
2023-04-03T10:23:33.010Z,16.40
2023-04-03T10:26:26.787Z,16.50
2023-04-03T10:29:10.099Z,16.70
2023-04-03T10:32:20.002Z,16.80
2023-04-03T10:34:58.495Z,17.00
2023-04-03T10:37:45.897Z,17.30
2023-04-03T10:40:32.272Z,17.40
2023-04-03T10:43:18.880Z,17.30
2023-04-03T10:45:58.716Z,17.30
2023-04-03T10:48:43.625Z,17.70
2023-04-03T10:51:38.523Z,17.90
2023-04-03T10:54:38.499Z,17.90
2023-04-03T10:57:13.058Z,17.70
2023-04-03T10:59:58.261Z,17.80
2023-04-03T11:02:57.877Z,17.70
2023-04-03T11:05:37.877Z,17.80
2023-04-03T11:08:14.563Z,17.90
2023-04-03T11:10:48.631Z,18.00
2023-04-03T11:13:22.232Z,18.40
2023-04-03T11:15:49.430Z,18.90
2023-04-03T11:18:49.101Z,19.00
2023-04-03T11:21:22.875Z,19.10
2023-04-03T11:23:52.270Z,19.00
2023-04-03T11:26:24.104Z,19.10
2023-04-03T11:29:04.652Z,19.20
2023-04-03T11:31:47.121Z,19.10
2023-04-03T11:34:37.273Z,19.40
2023-04-03T11:37:13.713Z,19.40
2023-04-03T11:39:47.876Z,19.30
2023-04-03T11:42:38.729Z,19.20
2023-04-03T11:45:27.913Z,19.00
2023-04-03T11:47:57.014Z,19.10
2023-04-03T11:50:36.609Z,18.70
2023-04-03T11:53:06.709Z,18.90
2023-04-03T11:55:33.699Z,19.10
2023-04-03T11:58:01.326Z,19.50
2023-04-03T12:00:51.746Z,19.80
2023-04-03T12:03:33.798Z,19.90
2023-04-03T12:06:10.839Z,20.00
2023-04-03T12:08:41.345Z,20.40
2023-04-03T12:11:14.448Z,20.40
2023-04-03T12:13:53.467Z,20.50
2023-04-03T12:16:27.325Z,20.50
2023-04-03T12:18:54.448Z,20.30
2023-04-03T12:21:50.376Z,19.90
2023-04-03T12:24:17.345Z,20.00
2023-04-03T12:27:04.132Z,19.80
2023-04-03T12:29:41.380Z,19.80
2023-04-03T12:32:30.858Z,19.80
2023-04-03T12:35:19.722Z,20.00
2023-04-03T12:38:19.620Z,20.00
2023-04-03T12:40:57.235Z,20.20
2023-04-03T12:43:43.120Z,20.40
2023-04-03T12:46:10.981Z,20.60
2023-04-03T12:49:00.015Z,20.30
2023-04-03T12:51:38.605Z,20.40
2023-04-03T12:54:16.636Z,21.00
2023-04-03T12:56:44.033Z,21.20
2023-04-03T12:59:27.813Z,21.50
2023-04-03T13:01:55.780Z,21.40
2023-04-03T13:04:23.173Z,21.10
2023-04-03T13:06:50.946Z,21.00
2023-04-03T13:09:33.641Z,20.90
2023-04-03T13:12:17.146Z,20.80
2023-04-03T13:14:54.609Z,20.50
2023-04-03T13:17:24.671Z,20.50
2023-04-03T13:19:53.499Z,20.90
2023-04-03T13:22:40.636Z,20.60
2023-04-03T13:25:13.116Z,21.00
2023-04-03T13:27:43.470Z,21.20
2023-04-03T13:30:40.783Z,21.30
2023-04-03T13:33:23.220Z,20.90
2023-04-03T13:36:06.125Z,20.90
2023-04-03T13:38:34.824Z,20.40
2023-04-03T13:41:06.706Z,20.40
2023-04-03T13:43:38.257Z,20.60
2023-04-03T13:46:11.626Z,20.90
2023-04-03T13:48:41.036Z,21.20
2023-04-03T13:51:21.808Z,21.00
2023-04-03T13:53:53.701Z,21.00
2023-04-03T13:56:38.384Z,21.20
2023-04-03T13:59:14.623Z,21.40
2023-04-03T14:02:00.962Z,21.70
2023-04-03T14:04:34.949Z,21.40
2023-04-03T14:07:02.040Z,21.20
2023-04-03T14:09:29.588Z,21.50
2023-04-03T14:12:07.727Z,21.50
2023-04-03T14:14:37.548Z,21.70
2023-04-03T14:17:25.025Z,21.70
2023-04-03T14:19:53.966Z,21.70
2023-04-03T14:22:26.065Z,21.50
2023-04-03T14:24:54.071Z,21.80
2023-04-03T14:27:37.126Z,21.90
2023-04-03T14:30:05.425Z,22.20
2023-04-03T14:32:32.715Z,22.00
2023-04-03T14:35:00.312Z,21.90
2023-04-03T14:37:31.420Z,22.10
2023-04-03T14:40:00.197Z,22.00
2023-04-03T14:42:32.014Z,21.80
2023-04-03T14:45:00.989Z,21.90
2023-04-03T14:47:32.202Z,21.80
2023-04-03T14:50:05.534Z,21.60
2023-04-03T14:52:35.902Z,21.40
2023-04-03T14:55:06.906Z,21.00
2023-04-03T14:57:37.911Z,21.00
2023-04-03T15:00:08.224Z,20.90
2023-04-03T15:02:37.525Z,20.50
2023-04-03T15:05:07.413Z,20.00
2023-04-03T15:07:40.807Z,19.60
2023-04-03T15:10:24.763Z,19.00
2023-04-03T15:12:52.694Z,18.30
2023-04-03T15:15:21.397Z,17.30
2023-04-03T15:17:54.912Z,17.20
2023-04-03T15:20:28.856Z,17.20
2023-04-03T15:22:57.466Z,17.40
2023-04-03T15:25:26.498Z,17.30
2023-04-03T15:27:55.129Z,17.90
2023-04-03T15:30:22.808Z,18.30
2023-04-03T15:32:50.365Z,18.90
2023-04-03T15:35:17.590Z,19.40
2023-04-03T15:37:44.612Z,19.90
2023-04-03T15:40:12.232Z,20.10
2023-04-03T15:42:40.128Z,20.30
2023-04-03T15:45:08.451Z,20.40
2023-04-03T15:47:35.527Z,20.20
2023-04-03T15:50:02.578Z,20.20
2023-04-03T15:52:29.489Z,20.30
2023-04-03T15:54:56.456Z,20.30
2023-04-03T15:57:27.165Z,20.20
2023-04-03T15:59:54.667Z,20.00
2023-04-03T16:02:22.425Z,20.20
2023-04-03T16:04:50.450Z,20.00
2023-04-03T16:07:17.659Z,19.60
2023-04-03T16:09:44.884Z,19.10
2023-04-03T16:12:11.965Z,18.70
2023-04-03T16:14:39.199Z,18.50
2023-04-03T16:17:06.393Z,18.70
2023-04-03T16:19:33.397Z,19.00
2023-04-03T16:22:00.693Z,19.10
2023-04-03T16:24:27.743Z,19.20
2023-04-03T16:26:54.704Z,18.70
2023-04-03T16:29:21.764Z,17.90
2023-04-03T16:31:48.946Z,16.60
2023-04-03T16:34:17.008Z,15.30
2023-04-03T16:36:44.093Z,14.20
2023-04-03T16:39:11.158Z,13.50
2023-04-03T16:41:38.280Z,12.90
2023-04-03T16:44:05.385Z,12.50
2023-04-03T16:46:32.454Z,12.20
2023-04-03T16:48:59.486Z,11.90
2023-04-03T16:51:26.409Z,11.60
2023-04-03T16:53:53.472Z,11.40
2023-04-03T16:56:21.203Z,11.30
2023-04-03T16:58:48.209Z,11.20
2023-04-03T17:01:18.319Z,11.00
2023-04-03T17:03:45.578Z,10.90
2023-04-03T17:06:17.415Z,10.70
2023-04-03T17:08:46.624Z,10.50
2023-04-03T17:11:14.135Z,10.40
2023-04-03T17:13:41.176Z,10.20
2023-04-03T17:16:11.909Z,10.10
2023-04-03T17:18:39.093Z,10.10
2023-04-03T17:21:06.637Z,9.90
2023-04-03T17:23:35.833Z,9.80
2023-04-03T17:26:03.823Z,9.70
2023-04-03T17:28:31.108Z,9.60
2023-04-03T17:31:01.038Z,9.50
2023-04-03T17:33:31.222Z,9.40
2023-04-03T17:35:59.873Z,9.30
2023-04-03T17:38:27.179Z,9.20
2023-04-03T17:41:01.240Z,9.10
2023-04-03T17:43:28.568Z,9.00
2023-04-03T17:46:03.868Z,9.00
2023-04-03T17:48:32.073Z,9.00
2023-04-03T17:50:59.174Z,8.90
2023-04-03T17:53:27.700Z,8.90
2023-04-03T17:55:54.723Z,8.70
2023-04-03T17:58:21.847Z,8.70
2023-04-03T18:00:48.909Z,8.60
2023-04-03T18:03:15.980Z,8.50
2023-04-03T18:05:42.981Z,8.50
2023-04-03T18:08:10.067Z,8.40
2023-04-03T18:10:37.968Z,8.40
2023-04-03T18:13:07.723Z,8.30
2023-04-03T18:15:34.825Z,8.20
2023-04-03T18:18:01.902Z,8.10
2023-04-03T18:20:29.135Z,8.10
2023-04-03T18:22:56.388Z,8.00
2023-04-03T18:25:23.368Z,8.00
2023-04-03T18:27:51.458Z,7.90
2023-04-03T18:30:18.933Z,7.90
2023-04-03T18:32:45.949Z,7.80
2023-04-03T18:35:13.391Z,7.80
2023-04-03T18:37:40.533Z,7.70
2023-04-03T18:40:08.204Z,7.60
2023-04-03T18:42:35.397Z,7.60
2023-04-03T18:45:05.460Z,7.60
2023-04-03T18:47:33.009Z,7.60
2023-04-03T18:50:01.000Z,7.60
2023-04-03T18:52:28.007Z,7.50
2023-04-03T18:54:56.833Z,7.50
2023-04-03T18:57:26.539Z,7.50
2023-04-03T18:59:53.697Z,7.40
2023-04-03T19:02:22.857Z,7.40
2023-04-03T19:04:51.096Z,7.30
2023-04-03T19:07:18.368Z,7.30
2023-04-03T19:09:45.904Z,7.20
2023-04-03T19:12:13.024Z,7.20
2023-04-03T19:14:40.158Z,7.20
2023-04-03T19:17:08.461Z,7.10
2023-04-03T19:19:35.703Z,7.10
2023-04-03T19:22:02.695Z,7.00
2023-04-03T19:24:29.659Z,7.00
2023-04-03T19:26:56.636Z,7.00
2023-04-03T19:29:23.597Z,7.00
2023-04-03T19:31:50.871Z,6.90
2023-04-03T19:34:18.230Z,6.90
2023-04-03T19:36:45.559Z,6.80
2023-04-03T19:39:14.822Z,6.90
2023-04-03T19:41:42.949Z,6.80
2023-04-03T19:44:10.519Z,6.80
2023-04-03T19:46:37.695Z,6.70
2023-04-03T19:49:05.372Z,6.70
2023-04-03T19:51:32.508Z,6.60
2023-04-03T19:53:59.526Z,6.60
2023-04-03T19:56:27.104Z,6.50
2023-04-03T19:58:54.419Z,6.50
2023-04-03T20:01:27.828Z,6.40
2023-04-03T20:03:54.892Z,6.40
2023-04-03T20:06:21.991Z,6.40
2023-04-03T20:08:49.408Z,6.40
2023-04-03T20:11:16.710Z,6.40
2023-04-03T20:13:43.631Z,6.40
2023-04-03T20:16:10.836Z,6.30
2023-04-03T20:18:38.765Z,6.30
2023-04-03T20:21:06.800Z,6.30
2023-04-03T20:23:34.096Z,6.30
2023-04-03T20:26:09.539Z,6.30
2023-04-03T20:28:41.875Z,6.30
2023-04-03T20:31:10.148Z,6.20
2023-04-03T20:33:38.075Z,6.20
2023-04-03T20:36:05.239Z,6.10
2023-04-03T20:38:32.224Z,6.10
2023-04-03T20:41:00.278Z,6.00
2023-04-03T20:43:28.362Z,6.00
2023-04-03T20:45:55.760Z,6.00
2023-04-03T20:50:53.478Z,6.00
2023-04-03T20:53:20.726Z,6.00
2023-04-03T20:55:59.710Z,5.90
2023-04-03T20:58:29.831Z,5.90
2023-04-03T21:00:57.545Z,5.80
2023-04-03T21:03:25.928Z,5.80
2023-04-03T21:06:01.805Z,5.80
2023-04-03T21:09:06.777Z,5.80
2023-04-03T21:12:12.191Z,5.80
2023-04-03T21:15:17.094Z,5.80
2023-04-03T21:18:06.762Z,5.80
2023-04-03T21:20:33.991Z,5.70
2023-04-03T21:23:01.061Z,5.70
2023-04-03T21:25:28.358Z,5.60
2023-04-03T21:27:55.724Z,5.60
2023-04-03T21:30:22.809Z,5.60
2023-04-03T21:32:49.951Z,5.50
2023-04-03T21:35:16.909Z,5.50
2023-04-03T21:37:43.910Z,5.50
2023-04-03T21:40:11.249Z,5.50
2023-04-03T21:42:38.549Z,5.50
2023-04-03T21:45:06.055Z,5.50
2023-04-03T21:47:33.673Z,5.50
2023-04-03T21:50:01.216Z,5.50
2023-04-03T21:52:28.351Z,5.50
2023-04-03T21:54:55.277Z,5.50
2023-04-03T21:57:22.841Z,5.50
2023-04-03T21:59:50.088Z,5.50
2023-04-03T22:02:17.107Z,5.40
2023-04-03T22:04:45.485Z,5.40
2023-04-03T22:07:12.714Z,5.40
2023-04-03T22:09:40.226Z,5.40
2023-04-03T22:12:08.958Z,5.40
2023-04-03T22:14:36.599Z,5.40
2023-04-03T22:17:04.238Z,5.50
2023-04-03T22:19:31.211Z,5.50
2023-04-03T22:21:58.175Z,5.40
2023-04-03T22:24:25.199Z,5.50
2023-04-03T22:26:52.525Z,5.50
2023-04-03T22:29:19.439Z,5.40
2023-04-03T22:31:46.579Z,5.50
2023-04-03T22:34:13.737Z,5.50
2023-04-03T22:36:43.092Z,5.40
2023-04-03T22:39:12.300Z,5.40
2023-04-03T22:41:39.213Z,5.40
2023-04-03T22:44:06.295Z,5.40
2023-04-03T22:46:33.350Z,5.40
2023-04-03T22:49:00.658Z,5.30
2023-04-03T22:51:27.743Z,5.30
2023-04-03T22:53:54.758Z,5.30
2023-04-03T22:56:23.944Z,5.20
2023-04-03T22:58:52.446Z,5.20
2023-04-03T23:01:20.220Z,5.10
2023-04-03T23:03:47.241Z,5.10
2023-04-03T23:06:14.169Z,5.10
2023-04-03T23:08:42.434Z,5.10
2023-04-03T23:11:09.775Z,5.00
2023-04-03T23:13:37.362Z,5.00
2023-04-03T23:16:04.881Z,5.00
2023-04-03T23:18:33.071Z,5.00
2023-04-03T23:21:01.671Z,4.90
2023-04-03T23:23:29.071Z,4.90
2023-04-03T23:26:00.687Z,4.90
2023-04-03T23:28:28.582Z,4.80
2023-04-03T23:31:04.050Z,4.80
2023-04-03T23:33:32.257Z,4.80
2023-04-03T23:36:00.401Z,4.70
2023-04-03T23:38:28.138Z,4.60
2023-04-03T23:40:55.108Z,4.60
2023-04-03T23:43:22.145Z,4.60
2023-04-03T23:45:49.340Z,4.50
2023-04-03T23:48:16.567Z,4.50
2023-04-03T23:50:43.837Z,4.50
2023-04-03T23:53:13.005Z,4.50
2023-04-03T23:55:40.364Z,4.50
2023-04-03T23:58:07.660Z,4.50
